createdAt,value
2018-08-18T00:00:49.811Z,17.35
2018-08-18T00:01:49.808Z,17.39
2018-08-18T00:02:49.814Z,17.22
2018-08-18T00:03:49.805Z,17.20
2018-08-18T00:04:49.803Z,17.32
2018-08-18T00:05:49.800Z,17.28
2018-08-18T00:06:49.792Z,17.30
2018-08-18T00:07:49.787Z,17.24
2018-08-18T00:08:49.792Z,17.22
2018-08-18T00:09:49.786Z,17.20
2018-08-18T00:10:49.779Z,17.22
2018-08-18T00:11:49.773Z,17.24
2018-08-18T00:12:49.772Z,17.14
2018-08-18T00:13:49.766Z,17.05
2018-08-18T00:14:49.766Z,17.12
2018-08-18T00:15:49.764Z,17.09
2018-08-18T00:16:49.760Z,17.09
2018-08-18T00:17:49.756Z,17.12
2018-08-18T00:18:49.748Z,17.14
2018-08-18T00:19:49.743Z,17.12
2018-08-18T00:20:49.741Z,17.18
2018-08-18T00:21:49.738Z,17.10
2018-08-18T00:22:49.739Z,17.09
2018-08-18T00:23:49.735Z,17.06
2018-08-18T00:24:49.726Z,17.10
2018-08-18T00:25:49.723Z,17.12
2018-08-18T00:26:49.724Z,17.09
2018-08-18T00:27:49.725Z,17.14
2018-08-18T00:28:49.717Z,17.06
2018-08-18T00:29:49.713Z,17.15
2018-08-18T00:30:49.705Z,17.12
2018-08-18T00:31:49.700Z,17.09
2018-08-18T00:32:49.698Z,17.10
2018-08-18T00:33:49.695Z,17.10
2018-08-18T00:34:49.694Z,17.12
2018-08-18T00:35:49.690Z,17.09
2018-08-18T00:36:49.687Z,17.09
2018-08-18T00:37:49.685Z,17.07
2018-08-18T00:38:49.678Z,17.12
2018-08-18T00:39:49.671Z,17.12
2018-08-18T00:40:49.674Z,17.02
2018-08-18T00:41:49.669Z,17.00
2018-08-18T00:42:49.662Z,16.92
2018-08-18T00:43:49.657Z,16.84
2018-08-18T00:44:49.653Z,16.84
2018-08-18T00:45:49.652Z,16.84
2018-08-18T00:46:49.651Z,16.87
2018-08-18T00:47:49.649Z,16.81
2018-08-18T00:48:49.645Z,16.78
2018-08-18T00:49:49.639Z,16.77
2018-08-18T00:50:49.637Z,16.66
2018-08-18T00:51:49.626Z,16.66
2018-08-18T00:52:49.624Z,16.63
2018-08-18T00:53:49.620Z,16.67
2018-08-18T00:54:49.622Z,16.69
2018-08-18T00:55:49.618Z,16.70
2018-08-18T00:56:49.609Z,16.63
2018-08-18T00:57:49.605Z,16.62
2018-08-18T00:58:49.607Z,16.62
2018-08-18T00:59:49.602Z,16.62
2018-08-18T01:00:49.598Z,16.52
2018-08-18T01:01:49.601Z,16.57
2018-08-18T01:02:49.586Z,16.51
2018-08-18T01:03:49.582Z,16.55
2018-08-18T01:04:49.581Z,16.57
2018-08-18T01:05:49.575Z,16.62
2018-08-18T01:06:49.577Z,16.54
2018-08-18T01:07:49.573Z,16.63
2018-08-18T01:08:49.568Z,16.63
2018-08-18T01:09:49.565Z,16.62
2018-08-18T01:10:49.574Z,16.52
2018-08-18T01:11:49.694Z,16.50
2018-08-18T01:12:49.657Z,16.51
2018-08-18T01:13:49.755Z,16.54
2018-08-18T01:14:49.660Z,16.47
2018-08-18T01:15:49.587Z,16.41
2018-08-18T01:16:49.534Z,16.42
2018-08-18T01:17:49.532Z,16.47
2018-08-18T01:18:49.533Z,16.51
2018-08-18T01:19:49.528Z,16.50
2018-08-18T01:20:49.527Z,16.55
2018-08-18T01:21:49.521Z,16.55
2018-08-18T01:22:49.512Z,16.55
2018-08-18T01:23:49.508Z,16.57
2018-08-18T01:24:49.504Z,16.45
2018-08-18T01:25:49.501Z,16.47
2018-08-18T01:26:49.503Z,16.41
2018-08-18T01:27:49.498Z,16.41
2018-08-18T01:28:49.491Z,16.37
2018-08-18T01:29:49.486Z,16.45
2018-08-18T01:30:49.487Z,16.55
2018-08-18T01:31:49.482Z,16.55
2018-08-18T01:32:49.481Z,16.55
2018-08-18T01:33:49.477Z,16.52
2018-08-18T01:34:49.470Z,16.48
2018-08-18T01:35:49.463Z,16.52
2018-08-18T01:36:49.459Z,16.47
2018-08-18T01:37:49.455Z,16.44
2018-08-18T01:38:49.457Z,16.50
2018-08-18T01:39:49.454Z,16.47
2018-08-18T01:40:49.450Z,16.62
2018-08-18T01:41:49.446Z,16.59
2018-08-18T01:42:49.435Z,16.51
2018-08-18T01:43:49.466Z,16.48
2018-08-18T01:44:49.432Z,16.45
2018-08-18T01:45:49.429Z,16.44
2018-08-18T01:46:49.423Z,16.42
2018-08-18T01:47:49.417Z,16.36
2018-08-18T01:48:49.412Z,16.32
2018-08-18T01:49:49.409Z,16.25
2018-08-18T01:50:49.410Z,16.27
2018-08-18T01:51:49.406Z,16.18
2018-08-18T01:52:49.402Z,16.25
2018-08-18T01:53:49.399Z,16.22
2018-08-18T01:54:49.390Z,16.27
2018-08-18T01:55:49.386Z,16.34
2018-08-18T01:56:49.383Z,16.37
2018-08-18T01:57:49.378Z,16.42
2018-08-18T01:58:49.378Z,16.48
2018-08-18T01:59:49.376Z,16.40
2018-08-18T02:00:49.366Z,16.36
2018-08-18T02:01:49.362Z,16.45
2018-08-18T02:02:49.363Z,16.42
2018-08-18T02:03:49.359Z,16.45
2018-08-18T02:04:49.357Z,16.36
2018-08-18T02:05:49.354Z,16.37
2018-08-18T02:06:49.344Z,16.40
2018-08-18T02:07:49.343Z,16.41
2018-08-18T02:08:49.336Z,16.48
2018-08-18T02:09:49.332Z,16.45
2018-08-18T02:10:49.333Z,16.54
2018-08-18T02:11:49.329Z,16.52
2018-08-18T02:12:49.326Z,16.55
2018-08-18T02:13:49.323Z,16.65
2018-08-18T02:14:49.316Z,16.59
2018-08-18T02:15:49.310Z,16.62
2018-08-18T02:16:49.315Z,16.69
2018-08-18T02:17:49.307Z,16.70
2018-08-18T02:18:49.300Z,16.59
2018-08-18T02:19:49.299Z,16.65
2018-08-18T02:20:49.291Z,16.55
2018-08-18T02:21:49.288Z,16.40
2018-08-18T02:22:49.290Z,16.45
2018-08-18T02:23:49.282Z,16.50
2018-08-18T02:24:49.280Z,16.54
2018-08-18T02:25:49.275Z,16.42
2018-08-18T02:26:49.267Z,16.59
2018-08-18T02:27:49.262Z,16.54
2018-08-18T02:28:49.303Z,16.48
2018-08-18T02:29:49.256Z,16.50
2018-08-18T02:30:49.257Z,16.50
2018-08-18T02:31:49.252Z,16.47
2018-08-18T02:32:49.244Z,16.36
2018-08-18T02:33:49.240Z,16.37
2018-08-18T02:34:49.241Z,16.42
2018-08-18T02:35:49.236Z,16.37
2018-08-18T02:36:49.232Z,16.40
2018-08-18T02:37:49.229Z,16.33
2018-08-18T02:38:49.219Z,16.33
2018-08-18T02:39:49.214Z,16.37
2018-08-18T02:40:49.211Z,16.32
2018-08-18T02:41:49.209Z,16.27
2018-08-18T02:42:49.215Z,16.40
2018-08-18T02:43:49.203Z,16.42
2018-08-18T02:44:49.201Z,16.37
2018-08-18T02:45:49.197Z,16.27
2018-08-18T02:46:49.188Z,16.30
2018-08-18T02:47:49.183Z,16.25
2018-08-18T02:48:49.185Z,16.29
2018-08-18T02:49:49.180Z,16.16
2018-08-18T02:50:49.172Z,16.29
2018-08-18T02:51:49.167Z,16.18
2018-08-18T02:52:49.163Z,16.22
2018-08-18T02:53:49.159Z,16.27
2018-08-18T02:54:49.161Z,16.30
2018-08-18T02:55:49.156Z,16.27
2018-08-18T02:56:49.151Z,16.23
2018-08-18T02:57:49.148Z,16.25
2018-08-18T02:58:49.139Z,16.14
2018-08-18T02:59:49.136Z,16.25
2018-08-18T03:00:49.130Z,16.22
2018-08-18T03:01:49.128Z,16.29
2018-08-18T03:02:49.129Z,16.16
2018-08-18T03:03:49.123Z,16.32
2018-08-18T03:04:49.114Z,16.30
2018-08-18T03:05:49.110Z,16.32
2018-08-18T03:06:49.112Z,16.29
2018-08-18T03:07:49.140Z,16.30
2018-08-18T03:08:49.102Z,16.25
2018-08-18T03:09:49.099Z,16.30
2018-08-18T03:10:49.090Z,16.29
2018-08-18T03:11:49.085Z,16.26
2018-08-18T03:12:49.083Z,16.16
2018-08-18T03:13:49.078Z,16.16
2018-08-18T03:14:49.079Z,16.23
2018-08-18T03:15:49.073Z,16.22
2018-08-18T03:16:49.071Z,16.25
2018-08-18T03:17:49.066Z,16.16
2018-08-18T03:18:49.067Z,16.25
2018-08-18T03:19:49.053Z,16.29
2018-08-18T03:20:49.055Z,16.13
2018-08-18T03:21:49.050Z,16.10
2018-08-18T03:22:49.041Z,16.06
2018-08-18T03:23:49.038Z,16.01
2018-08-18T03:24:49.032Z,16.04
2018-08-18T03:25:49.029Z,15.96
2018-08-18T03:26:49.029Z,16.01
2018-08-18T03:27:49.024Z,16.07
2018-08-18T03:28:49.020Z,16.08
2018-08-18T03:29:49.015Z,16.07
2018-08-18T03:30:49.008Z,15.98
2018-08-18T03:31:49.002Z,15.93
2018-08-18T03:32:48.998Z,15.98
2018-08-18T03:33:48.995Z,15.88
2018-08-18T03:34:48.996Z,15.85
2018-08-18T03:35:48.992Z,15.77
2018-08-18T03:36:48.981Z,15.76
2018-08-18T03:37:48.985Z,15.73
2018-08-18T03:38:48.981Z,15.67
2018-08-18T03:39:48.981Z,15.73
2018-08-18T03:40:48.972Z,15.76
2018-08-18T03:41:48.964Z,15.68
2018-08-18T03:42:48.956Z,15.73
2018-08-18T03:43:48.952Z,15.71
2018-08-18T03:44:48.947Z,15.77
2018-08-18T03:45:48.943Z,15.76
2018-08-18T03:46:48.944Z,15.74
2018-08-18T03:47:48.938Z,15.71
2018-08-18T03:48:48.936Z,15.78
2018-08-18T03:49:48.932Z,15.81
2018-08-18T03:50:48.924Z,15.73
2018-08-18T03:51:48.917Z,15.71
2018-08-18T03:52:48.919Z,15.60
2018-08-18T03:53:48.921Z,15.62
2018-08-18T03:54:48.905Z,15.62
2018-08-18T03:55:48.909Z,15.67
2018-08-18T03:56:48.930Z,15.64
2018-08-18T03:57:48.891Z,15.64
2018-08-18T03:58:48.892Z,15.60
2018-08-18T03:59:48.888Z,15.64
2018-08-18T04:00:48.882Z,15.60
2018-08-18T04:01:48.902Z,15.58
2018-08-18T04:02:48.870Z,15.52
2018-08-18T04:03:48.866Z,15.67
2018-08-18T04:04:48.861Z,15.68
2018-08-18T04:05:48.858Z,15.59
2018-08-18T04:06:48.858Z,15.64
2018-08-18T04:07:48.852Z,15.60
2018-08-18T04:08:48.843Z,15.60
2018-08-18T04:09:48.839Z,15.62
2018-08-18T04:10:48.841Z,15.60
2018-08-18T04:11:48.835Z,15.62
2018-08-18T04:12:48.831Z,15.60
2018-08-18T04:13:48.829Z,15.67
2018-08-18T04:14:48.817Z,15.64
2018-08-18T04:15:48.814Z,15.64
2018-08-18T04:16:48.812Z,15.68
2018-08-18T04:17:48.805Z,15.67
2018-08-18T04:18:48.882Z,15.59
2018-08-18T04:19:48.799Z,15.62
2018-08-18T04:20:48.799Z,15.66
2018-08-18T04:21:48.790Z,15.70
2018-08-18T04:22:48.783Z,15.70
2018-08-18T04:23:48.777Z,15.66
2018-08-18T04:24:48.777Z,15.59
2018-08-18T04:25:48.777Z,15.67
2018-08-18T04:26:48.764Z,15.67
2018-08-18T04:27:48.759Z,15.68
2018-08-18T04:28:48.755Z,15.66
2018-08-18T04:29:48.750Z,15.64
2018-08-18T04:30:48.755Z,15.59
2018-08-18T04:31:48.747Z,15.56
2018-08-18T04:32:48.742Z,15.70
2018-08-18T04:33:48.738Z,15.76
2018-08-18T04:34:48.728Z,15.66
2018-08-18T04:35:48.726Z,15.68
2018-08-18T04:36:48.719Z,15.64
2018-08-18T04:37:48.715Z,15.60
2018-08-18T04:38:48.715Z,15.76
2018-08-18T04:39:48.709Z,15.85
2018-08-18T04:40:48.701Z,15.76
2018-08-18T04:41:48.697Z,15.77
2018-08-18T04:42:48.698Z,15.77
2018-08-18T04:43:48.702Z,15.81
2018-08-18T04:44:48.689Z,15.73
2018-08-18T04:45:48.685Z,15.77
2018-08-18T04:46:48.675Z,15.86
2018-08-18T04:47:48.670Z,15.78
2018-08-18T04:48:48.666Z,15.95
2018-08-18T04:49:48.661Z,15.93
2018-08-18T04:50:48.668Z,16.03
2018-08-18T04:51:48.656Z,16.06
2018-08-18T04:52:48.652Z,16.07
2018-08-18T04:53:48.649Z,16.08
2018-08-18T04:54:48.641Z,16.29
2018-08-18T04:55:48.634Z,16.45
2018-08-18T04:56:48.681Z,16.75
2018-08-18T04:57:48.635Z,17.02
2018-08-18T04:58:48.623Z,17.22
2018-08-18T04:59:48.618Z,17.45
2018-08-18T05:00:48.616Z,17.76
2018-08-18T05:01:48.611Z,17.92
2018-08-18T05:02:48.612Z,18.21
2018-08-18T05:03:48.608Z,18.47
2018-08-18T05:04:48.604Z,18.66
2018-08-18T05:05:48.600Z,19.01
2018-08-18T05:06:48.592Z,19.12
2018-08-18T05:07:48.588Z,19.43
2018-08-18T05:08:48.631Z,19.67
2018-08-18T05:09:48.582Z,19.92
2018-08-18T05:10:48.583Z,20.17
2018-08-18T05:11:48.581Z,20.48
2018-08-18T05:12:48.574Z,20.66
2018-08-18T05:13:48.570Z,20.83
2018-08-18T05:14:48.572Z,21.06
2018-08-18T05:15:48.568Z,21.22
2018-08-18T05:16:48.570Z,21.34
2018-08-18T05:17:48.568Z,21.51
2018-08-18T05:18:48.602Z,21.64
2018-08-18T05:19:48.556Z,21.71
2018-08-18T05:20:48.555Z,21.46
2018-08-18T05:21:48.553Z,21.56
2018-08-18T05:22:48.558Z,21.89
2018-08-18T05:23:48.554Z,22.20
2018-08-18T05:24:48.555Z,22.59
2018-08-18T05:25:48.553Z,22.89
2018-08-18T05:26:48.548Z,23.15
2018-08-18T05:27:48.545Z,23.50
2018-08-18T05:28:48.550Z,23.56
2018-08-18T05:29:48.550Z,23.86
2018-08-18T05:30:48.547Z,24.11
2018-08-18T05:31:48.543Z,24.36
2018-08-18T05:32:48.542Z,24.44
2018-08-18T05:33:48.548Z,24.24
2018-08-18T05:34:48.547Z,24.39
2018-08-18T05:35:48.547Z,24.51
2018-08-18T05:36:48.547Z,24.68
2018-08-18T05:37:48.548Z,24.98
2018-08-18T05:38:48.544Z,24.98
2018-08-18T05:39:48.544Z,24.92
2018-08-18T05:40:48.545Z,24.84
2018-08-18T05:41:48.547Z,24.80
2018-08-18T05:42:48.554Z,25.01
2018-08-18T05:43:48.571Z,25.19
2018-08-18T05:44:48.551Z,25.14
2018-08-18T05:45:48.551Z,25.44
2018-08-18T05:46:48.602Z,25.48
2018-08-18T05:47:48.559Z,25.19
2018-08-18T05:48:48.560Z,24.89
2018-08-18T05:49:48.563Z,24.99
2018-08-18T05:50:48.560Z,24.74
2018-08-18T05:51:48.560Z,24.21
2018-08-18T05:52:48.563Z,24.45
2018-08-18T05:53:48.566Z,23.53
2018-08-18T05:54:48.572Z,23.97
2018-08-18T05:55:48.574Z,24.08
2018-08-18T05:56:48.577Z,24.05
2018-08-18T05:57:48.580Z,23.82
2018-08-18T05:58:48.577Z,23.63
2018-08-18T05:59:48.627Z,24.02
2018-08-18T06:00:48.588Z,23.86
2018-08-18T06:01:48.590Z,23.77
2018-08-18T06:02:48.588Z,23.90
2018-08-18T06:03:48.590Z,24.53
2018-08-18T06:04:48.595Z,25.04
2018-08-18T06:05:48.732Z,25.56
2018-08-18T06:06:48.604Z,26.08
2018-08-18T06:07:48.610Z,26.66
2018-08-18T06:08:48.611Z,27.21
2018-08-18T06:09:48.613Z,27.69
2018-08-18T06:10:48.613Z,28.03
2018-08-18T06:11:48.616Z,28.40
2018-08-18T06:12:48.619Z,28.64
2018-08-18T06:13:48.624Z,28.69
2018-08-18T06:14:48.633Z,28.73
2018-08-18T06:15:48.637Z,28.21
2018-08-18T06:16:48.637Z,28.72
2018-08-18T06:17:48.641Z,28.77
2018-08-18T06:18:48.651Z,28.58
2018-08-18T06:19:48.657Z,28.17
2018-08-18T06:20:48.658Z,28.23
2018-08-18T06:21:48.665Z,27.35
2018-08-18T06:22:48.664Z,27.16
2018-08-18T06:23:48.668Z,27.72
2018-08-18T06:24:48.675Z,27.65
2018-08-18T06:25:48.679Z,28.17
2018-08-18T06:26:48.694Z,27.96
2018-08-18T06:27:48.698Z,28.52
2018-08-18T06:28:48.704Z,27.99
2018-08-18T06:29:48.707Z,28.52
2018-08-18T06:30:48.707Z,28.65
2018-08-18T06:31:48.713Z,29.11
2018-08-18T06:32:48.723Z,28.50
2018-08-18T06:33:48.729Z,28.13
2018-08-18T06:34:48.867Z,28.52
2018-08-18T06:35:48.739Z,29.14
2018-08-18T06:36:48.745Z,29.67
2018-08-18T06:37:48.754Z,28.18
2018-08-18T06:38:48.764Z,28.11
2018-08-18T06:39:48.770Z,28.77
2018-08-18T06:40:48.775Z,28.57
2018-08-18T06:41:48.964Z,27.98
2018-08-18T06:42:48.789Z,28.30
2018-08-18T06:43:48.795Z,28.73
2018-08-18T06:44:48.799Z,28.55
2018-08-18T06:45:48.811Z,28.52
2018-08-18T06:46:48.820Z,28.21
2018-08-18T06:47:48.826Z,28.89
2018-08-18T06:48:48.830Z,29.54
2018-08-18T06:49:48.837Z,29.30
2018-08-18T06:50:48.850Z,28.97
2018-08-18T06:51:48.856Z,29.60
2018-08-18T06:52:48.865Z,28.82
2018-08-18T06:53:48.874Z,29.55
2018-08-18T06:54:48.925Z,29.66
2018-08-18T06:55:48.883Z,30.32
2018-08-18T06:56:48.948Z,30.94
2018-08-18T06:57:48.901Z,31.68
2018-08-18T06:58:48.915Z,30.61
2018-08-18T06:59:48.923Z,31.41
2018-08-18T07:00:48.930Z,31.42
2018-08-18T07:01:48.940Z,30.86
2018-08-18T07:02:48.945Z,30.97
2018-08-18T07:03:48.952Z,31.37
2018-08-18T07:04:48.967Z,30.90
2018-08-18T07:05:49.017Z,31.10
2018-08-18T07:06:48.981Z,29.89
2018-08-18T07:07:48.993Z,29.67
2018-08-18T07:08:49.000Z,30.08
2018-08-18T07:09:49.018Z,30.53
2018-08-18T07:10:49.025Z,29.49
2018-08-18T07:11:49.034Z,28.57
2018-08-18T07:12:49.048Z,28.39
2018-08-18T07:13:49.053Z,29.48
2018-08-18T07:14:49.060Z,29.23
2018-08-18T07:15:49.071Z,30.11
2018-08-18T07:16:49.080Z,30.63
2018-08-18T07:17:49.089Z,31.28
2018-08-18T07:18:49.104Z,31.53
2018-08-18T07:19:49.113Z,32.06
2018-08-18T07:20:49.120Z,32.39
2018-08-18T07:21:49.129Z,32.56
2018-08-18T07:22:49.152Z,31.99
2018-08-18T07:23:49.153Z,32.02
2018-08-18T07:24:49.165Z,32.56
2018-08-18T07:25:49.178Z,32.56
2018-08-18T07:26:49.182Z,32.17
2018-08-18T07:27:49.190Z,31.78
2018-08-18T07:28:49.327Z,32.06
2018-08-18T07:29:49.218Z,32.10
2018-08-18T07:30:49.223Z,32.51
2018-08-18T07:31:49.234Z,32.69
2018-08-18T07:32:49.244Z,33.29
2018-08-18T07:33:49.255Z,33.71
2018-08-18T07:34:49.269Z,33.82
2018-08-18T07:35:49.279Z,34.05
2018-08-18T07:36:49.287Z,33.81
2018-08-18T07:37:49.297Z,34.11
2018-08-18T07:38:49.314Z,33.66
2018-08-18T07:39:49.323Z,33.87
2018-08-18T07:40:49.334Z,33.94
2018-08-18T07:41:49.348Z,34.28
2018-08-18T07:42:49.356Z,34.48
2018-08-18T07:43:49.365Z,33.96
2018-08-18T07:44:49.377Z,33.47
2018-08-18T07:45:49.394Z,33.53
2018-08-18T07:46:49.404Z,33.90
2018-08-18T07:47:49.450Z,34.33
2018-08-18T07:48:49.426Z,33.33
2018-08-18T07:49:49.439Z,33.71
2018-08-18T07:50:49.447Z,34.00
2018-08-18T07:51:49.462Z,34.06
2018-08-18T07:52:49.473Z,34.43
2018-08-18T07:53:49.487Z,34.58
2018-08-18T07:54:49.495Z,34.94
2018-08-18T07:55:49.505Z,35.12
2018-08-18T07:56:49.518Z,35.15
2018-08-18T07:57:49.532Z,35.50
2018-08-18T07:58:49.549Z,35.89
2018-08-18T07:59:49.642Z,36.15
2018-08-18T08:00:49.573Z,36.41
2018-08-18T08:01:49.586Z,36.83
2018-08-18T08:02:49.595Z,36.65
2018-08-18T08:03:49.610Z,36.52
2018-08-18T08:04:49.621Z,36.62
2018-08-18T08:05:49.772Z,36.62
2018-08-18T08:06:49.651Z,36.82
2018-08-18T08:07:49.664Z,36.43
2018-08-18T08:08:49.678Z,36.50
2018-08-18T08:09:49.686Z,35.93
2018-08-18T08:10:49.708Z,35.83
2018-08-18T08:11:49.718Z,35.95
2018-08-18T08:12:49.744Z,35.42
2018-08-18T08:13:49.745Z,35.44
2018-08-18T08:14:49.755Z,35.92
2018-08-18T08:15:49.768Z,35.62
2018-08-18T08:16:49.785Z,35.49
2018-08-18T08:17:49.799Z,35.37
2018-08-18T08:18:49.816Z,35.24
2018-08-18T08:19:49.829Z,35.55
2018-08-18T08:20:49.843Z,35.25
2018-08-18T08:21:49.858Z,34.99
2018-08-18T08:22:49.868Z,34.16
2018-08-18T08:23:49.881Z,34.42
2018-08-18T08:24:49.903Z,34.45
2018-08-18T08:25:49.914Z,34.76
2018-08-18T08:26:49.924Z,34.24
2018-08-18T08:27:49.938Z,34.56
2018-08-18T08:28:49.952Z,34.80
2018-08-18T08:29:49.967Z,35.43
2018-08-18T08:30:49.987Z,35.65
2018-08-18T08:31:50.000Z,35.49
2018-08-18T08:32:50.014Z,35.31
2018-08-18T08:33:50.029Z,34.83
2018-08-18T08:34:50.040Z,34.80
2018-08-18T08:35:50.052Z,34.91
2018-08-18T08:36:50.192Z,35.34
2018-08-18T08:37:50.083Z,35.32
2018-08-18T08:38:50.102Z,34.99
2018-08-18T08:39:50.116Z,35.12
2018-08-18T08:40:50.125Z,35.76
2018-08-18T08:41:50.141Z,35.31
2018-08-18T08:42:50.202Z,34.87
2018-08-18T08:43:50.174Z,35.44
2018-08-18T08:44:50.188Z,35.07
2018-08-18T08:45:50.203Z,35.49
2018-08-18T08:46:50.214Z,35.09
2018-08-18T08:47:50.227Z,35.46
2018-08-18T08:48:50.243Z,35.29
2018-08-18T08:49:50.258Z,35.89
2018-08-18T08:50:50.280Z,35.59
2018-08-18T08:51:50.292Z,35.20
2018-08-18T08:52:50.309Z,34.58
2018-08-18T08:53:50.323Z,34.46
2018-08-18T08:54:50.334Z,34.08
2018-08-18T08:55:50.349Z,34.40
2018-08-18T08:56:50.368Z,34.31
2018-08-18T08:57:50.384Z,34.98
2018-08-18T08:58:50.450Z,35.32
2018-08-18T08:59:50.407Z,34.78
2018-08-18T09:00:50.422Z,35.28
2018-08-18T09:01:50.437Z,35.76
2018-08-18T09:02:50.457Z,34.93
2018-08-18T09:03:50.472Z,34.72
2018-08-18T09:04:50.487Z,35.62
2018-08-18T09:05:50.505Z,35.84
2018-08-18T09:06:50.513Z,35.46
2018-08-18T09:07:50.554Z,35.58
2018-08-18T09:08:50.545Z,34.95
2018-08-18T09:09:50.566Z,34.93
2018-08-18T09:10:50.581Z,34.90
2018-08-18T09:11:50.595Z,35.28
2018-08-18T09:12:50.605Z,35.44
2018-08-18T09:13:50.622Z,35.56
2018-08-18T09:14:50.642Z,34.95
2018-08-18T09:15:50.656Z,35.40
2018-08-18T09:16:50.671Z,34.46
2018-08-18T09:17:50.686Z,34.31
2018-08-18T09:18:50.697Z,35.09
2018-08-18T09:19:50.713Z,35.65
2018-08-18T09:20:50.728Z,35.93
2018-08-18T09:21:50.748Z,35.89
2018-08-18T09:22:50.767Z,35.31
2018-08-18T09:23:50.779Z,35.29
2018-08-18T09:24:50.795Z,35.02
2018-08-18T09:25:50.812Z,34.90
2018-08-18T09:26:50.822Z,35.06
2018-08-18T09:27:50.838Z,35.68
2018-08-18T09:28:50.861Z,35.96
2018-08-18T09:29:50.874Z,35.93
2018-08-18T09:30:50.885Z,35.61
2018-08-18T09:31:50.903Z,34.83
2018-08-18T09:32:50.917Z,34.88
2018-08-18T09:33:50.934Z,35.25
2018-08-18T09:34:50.953Z,36.11
2018-08-18T09:35:50.970Z,35.81
2018-08-18T09:36:50.987Z,36.15
2018-08-18T09:37:51.003Z,36.37
2018-08-18T09:38:51.015Z,35.22
2018-08-18T09:39:51.031Z,34.19
2018-08-18T09:40:51.046Z,33.43
2018-08-18T09:41:51.062Z,33.66
2018-08-18T09:42:51.083Z,33.89
2018-08-18T09:43:51.101Z,32.85
2018-08-18T09:44:51.112Z,32.88
2018-08-18T09:45:51.128Z,33.11
2018-08-18T09:46:51.147Z,33.68
2018-08-18T09:47:51.164Z,33.44
2018-08-18T09:48:51.180Z,33.35
2018-08-18T09:49:51.198Z,33.92
2018-08-18T09:50:51.207Z,34.34
2018-08-18T09:51:51.223Z,34.33
2018-08-18T09:52:51.240Z,33.34
2018-08-18T09:53:51.258Z,33.11
2018-08-18T09:54:51.276Z,33.00
2018-08-18T09:55:51.292Z,33.29
2018-08-18T09:56:51.308Z,33.29
2018-08-18T09:57:51.322Z,33.74
2018-08-18T09:58:51.334Z,33.71
2018-08-18T09:59:51.349Z,33.87
2018-08-18T10:00:51.369Z,32.65
2018-08-18T10:01:51.386Z,32.68
2018-08-18T10:02:51.399Z,32.73
2018-08-18T10:03:51.414Z,32.88
2018-08-18T10:04:51.430Z,32.66
2018-08-18T10:05:51.451Z,32.68
2018-08-18T10:06:51.467Z,31.82
2018-08-18T10:07:51.483Z,33.07
2018-08-18T10:08:51.500Z,33.31
2018-08-18T10:09:51.514Z,33.52
2018-08-18T10:10:51.526Z,34.18
2018-08-18T10:11:51.542Z,33.96
2018-08-18T10:12:51.558Z,33.68
2018-08-18T10:13:51.572Z,33.89
2018-08-18T10:14:51.593Z,33.82
2018-08-18T10:15:51.608Z,34.19
2018-08-18T10:16:51.619Z,33.82
2018-08-18T10:17:51.634Z,33.79
2018-08-18T10:18:51.655Z,33.47
2018-08-18T10:19:51.673Z,34.50
2018-08-18T10:20:51.686Z,33.87
2018-08-18T10:21:51.703Z,33.84
2018-08-18T10:22:51.713Z,33.96
2018-08-18T10:23:51.728Z,33.44
2018-08-18T10:24:51.745Z,34.46
2018-08-18T10:25:51.763Z,33.82
2018-08-18T10:26:51.781Z,33.97
2018-08-18T10:27:51.796Z,33.00
2018-08-18T10:28:51.810Z,33.09
2018-08-18T10:29:51.827Z,33.47
2018-08-18T10:30:51.839Z,33.89
2018-08-18T10:31:51.853Z,33.99
2018-08-18T10:32:51.873Z,33.89
2018-08-18T10:33:51.889Z,34.19
2018-08-18T10:34:51.903Z,34.12
2018-08-18T10:35:51.916Z,33.99
2018-08-18T10:36:51.933Z,33.26
2018-08-18T10:37:51.950Z,33.15
2018-08-18T10:38:51.969Z,33.65
2018-08-18T10:39:51.985Z,33.57
2018-08-18T10:40:51.999Z,33.52
2018-08-18T10:41:52.015Z,33.09
2018-08-18T10:42:52.026Z,33.65
2018-08-18T10:43:52.041Z,33.94
2018-08-18T10:44:52.062Z,33.33
2018-08-18T10:45:52.073Z,33.99
2018-08-18T10:46:52.093Z,34.08
2018-08-18T10:47:52.107Z,32.96
2018-08-18T10:48:52.119Z,33.14
2018-08-18T10:49:52.134Z,33.35
2018-08-18T10:50:52.155Z,33.86
2018-08-18T10:51:52.169Z,32.54
2018-08-18T10:52:52.182Z,32.51
2018-08-18T10:53:52.198Z,32.53
2018-08-18T10:54:52.209Z,33.28
2018-08-18T10:55:52.226Z,32.65
2018-08-18T10:56:52.238Z,32.03
2018-08-18T10:57:52.253Z,31.92
2018-08-18T10:58:52.273Z,31.30
2018-08-18T10:59:52.285Z,31.47
2018-08-18T11:00:52.302Z,31.87
2018-08-18T11:01:52.317Z,32.58
2018-08-18T11:02:52.326Z,32.53
2018-08-18T11:03:52.396Z,32.72
2018-08-18T11:04:52.358Z,32.69
2018-08-18T11:05:52.373Z,32.63
2018-08-18T11:06:52.382Z,32.51
2018-08-18T11:07:52.395Z,32.50
2018-08-18T11:08:52.408Z,32.41
2018-08-18T11:09:52.424Z,32.63
2018-08-18T11:10:52.442Z,31.88
2018-08-18T11:11:52.555Z,31.67
2018-08-18T11:12:52.468Z,32.12
2018-08-18T11:13:52.483Z,32.25
2018-08-18T11:14:52.493Z,32.53
2018-08-18T11:15:52.506Z,33.14
2018-08-18T11:16:52.521Z,33.70
2018-08-18T11:17:52.535Z,33.77
2018-08-18T11:18:52.556Z,34.27
2018-08-18T11:19:52.569Z,33.97
2018-08-18T11:20:52.579Z,34.45
2018-08-18T11:21:52.613Z,33.89
2018-08-18T11:22:52.618Z,33.37
2018-08-18T11:23:52.625Z,34.26
2018-08-18T11:24:52.639Z,33.05
2018-08-18T11:25:52.655Z,33.20
2018-08-18T11:26:52.665Z,32.99
2018-08-18T11:27:52.677Z,32.65
2018-08-18T11:28:52.832Z,32.27
2018-08-18T11:29:52.706Z,31.47
2018-08-18T11:30:52.726Z,31.05
2018-08-18T11:31:52.740Z,30.29
2018-08-18T11:32:52.752Z,30.34
2018-08-18T11:33:52.765Z,30.25
2018-08-18T11:34:52.774Z,30.06
2018-08-18T11:35:52.785Z,29.86
2018-08-18T11:36:52.802Z,29.63
2018-08-18T11:37:52.815Z,29.47
2018-08-18T11:38:52.819Z,29.49
2018-08-18T11:39:52.837Z,29.21
2018-08-18T11:40:52.841Z,29.25
2018-08-18T11:41:52.852Z,29.27
2018-08-18T11:42:52.866Z,29.32
2018-08-18T11:43:52.877Z,29.15
2018-08-18T11:44:52.884Z,29.21
2018-08-18T11:45:52.925Z,29.00
2018-08-18T11:46:52.945Z,28.91
2018-08-18T11:47:52.907Z,28.73
2018-08-18T11:48:52.918Z,28.88
2018-08-18T11:49:52.925Z,28.65
2018-08-18T11:50:52.939Z,28.88
2018-08-18T11:51:52.946Z,29.11
2018-08-18T11:52:52.949Z,28.92
2018-08-18T11:53:52.957Z,28.97
2018-08-18T11:54:52.969Z,28.76
2018-08-18T11:55:52.985Z,28.72
2018-08-18T11:56:52.982Z,28.69
2018-08-18T11:57:52.992Z,28.65
2018-08-18T11:58:52.994Z,28.69
2018-08-18T11:59:53.001Z,28.57
2018-08-18T12:00:53.009Z,28.67
2018-08-18T12:01:53.070Z,28.60
2018-08-18T12:02:53.025Z,28.58
2018-08-18T12:03:53.030Z,28.42
2018-08-18T12:04:53.038Z,28.36
2018-08-18T12:05:53.046Z,28.36
2018-08-18T12:06:53.045Z,28.50
2018-08-18T12:07:53.055Z,28.73
2018-08-18T12:08:53.062Z,28.77
2018-08-18T12:09:53.069Z,28.82
2018-08-18T12:10:53.209Z,28.94
2018-08-18T12:11:53.077Z,28.76
2018-08-18T12:12:53.082Z,28.60
2018-08-18T12:13:53.086Z,28.48
2018-08-18T12:14:53.097Z,28.70
2018-08-18T12:15:53.102Z,28.67
2018-08-18T12:16:53.108Z,28.54
2018-08-18T12:17:53.113Z,28.38
2018-08-18T12:18:53.116Z,28.36
2018-08-18T12:19:53.119Z,28.35
2018-08-18T12:20:53.126Z,28.51
2018-08-18T12:21:53.131Z,28.24
2018-08-18T12:22:53.142Z,28.25
2018-08-18T12:23:53.146Z,28.18
2018-08-18T12:24:53.147Z,28.21
2018-08-18T12:25:53.151Z,28.15
2018-08-18T12:26:53.162Z,28.01
2018-08-18T12:27:53.167Z,28.20
2018-08-18T12:28:53.171Z,28.24
2018-08-18T12:29:53.211Z,28.09
2018-08-18T12:30:53.177Z,28.15
2018-08-18T12:31:53.181Z,28.14
2018-08-18T12:32:53.187Z,28.25
2018-08-18T12:33:53.192Z,28.17
2018-08-18T12:34:53.201Z,28.20
2018-08-18T12:35:53.205Z,28.17
2018-08-18T12:36:53.256Z,28.21
2018-08-18T12:37:53.216Z,28.09
2018-08-18T12:38:53.216Z,28.09
2018-08-18T12:39:53.219Z,28.01
2018-08-18T12:40:53.229Z,28.06
2018-08-18T12:41:53.243Z,28.02
2018-08-18T12:42:53.234Z,28.03
2018-08-18T12:43:53.239Z,28.02
2018-08-18T12:44:53.242Z,27.88
2018-08-18T12:45:53.247Z,27.90
2018-08-18T12:46:53.257Z,27.91
2018-08-18T12:47:53.262Z,27.98
2018-08-18T12:48:53.266Z,27.95
2018-08-18T12:49:53.376Z,27.77
2018-08-18T12:50:53.271Z,27.80
2018-08-18T12:51:53.277Z,27.84
2018-08-18T12:52:53.278Z,27.81